Accomac, Pennsylvania
Current Conditions -  °F | °C
As of 2:56 AM on Friday 24 Oct 2014 (Local Time) from KMDT Reporting Station
Broken Clouds Broken Clouds  
Wind Chill: 56°   Ceiling: 4300
Heat Index: 56°   Visibility: 10mi
Dew Point: 41°   Wind: 14mph
Humidity: 57%   Direction: 320°NW
Pressure: 29.88"   Gusts: NA
Location:  40.0152°N, 76.5974°W
Report Text: KMDT 240656Z 32012KT 10SM BKN043 13/05 A2988 RMK AO2 SLP119 T01330050 $
Loading
Personal Weather Stations






























Interactive Weather Map
Tropical Storm Tracking
New forecast layout! Learn more

10-Day Weather Forecast

Advertisements
Track Severe Weather on mobile